createdAt,value
2019-04-26T00:00:10.398Z,9.90
2019-04-26T00:02:41.251Z,9.90
2019-04-26T00:05:10.476Z,9.70
2019-04-26T00:07:43.724Z,9.60
2019-04-26T00:10:14.591Z,9.60
2019-04-26T00:12:44.858Z,9.60
2019-04-26T00:15:16.328Z,9.50
2019-04-26T00:17:46.804Z,9.50
2019-04-26T00:20:15.499Z,9.40
2019-04-26T00:22:44.257Z,9.50
2019-04-26T00:25:13.065Z,9.40
2019-04-26T00:27:41.693Z,9.40
2019-04-26T00:30:11.772Z,9.30
2019-04-26T00:32:40.782Z,9.10
2019-04-26T00:35:09.509Z,9.00
2019-04-26T00:37:38.269Z,8.90
2019-04-26T00:40:07.135Z,9.00
2019-04-26T00:42:36.430Z,8.90
2019-04-26T00:45:05.590Z,8.80
2019-04-26T00:47:35.512Z,8.70
2019-04-26T00:50:05.762Z,8.70
2019-04-26T00:52:34.779Z,8.60
2019-04-26T00:55:03.574Z,8.50
2019-04-26T00:57:33.306Z,8.40
2019-04-26T01:00:03.200Z,8.50
2019-04-26T01:02:36.108Z,8.50
2019-04-26T01:05:05.472Z,8.40
2019-04-26T01:07:34.166Z,8.40
2019-04-26T01:10:02.837Z,8.30
2019-04-26T01:12:31.549Z,8.20
2019-04-26T01:15:01.764Z,8.10
2019-04-26T01:17:30.392Z,8.00
2019-04-26T01:19:59.713Z,8.00
2019-04-26T01:22:31.381Z,7.90
2019-04-26T01:25:05.421Z,7.90
2019-04-26T01:27:37.396Z,7.80
2019-04-26T01:30:11.660Z,7.60
2019-04-26T01:32:42.818Z,7.60
2019-04-26T01:35:11.974Z,7.60
2019-04-26T01:37:43.336Z,7.60
2019-04-26T01:40:13.692Z,7.50
2019-04-26T01:42:49.530Z,7.50
2019-04-26T01:45:32.124Z,7.40
2019-04-26T01:48:01.574Z,7.30
2019-04-26T01:50:32.131Z,7.30
2019-04-26T01:53:01.781Z,7.30
2019-04-26T01:55:32.504Z,7.40
2019-04-26T01:58:04.202Z,7.50
2019-04-26T02:00:37.851Z,7.50
2019-04-26T02:03:08.140Z,7.50
2019-04-26T02:05:36.882Z,7.50
2019-04-26T02:08:05.591Z,7.60
2019-04-26T02:10:35.993Z,7.60
2019-04-26T02:13:04.750Z,7.60
2019-04-26T02:15:33.871Z,7.40
2019-04-26T02:18:03.372Z,7.40
2019-04-26T02:20:49.694Z,7.30
2019-04-26T02:23:23.609Z,7.30
2019-04-26T02:25:53.266Z,7.30
2019-04-26T02:28:21.822Z,7.50
2019-04-26T02:30:50.644Z,7.60
2019-04-26T02:33:19.901Z,7.80
2019-04-26T02:35:49.447Z,7.80
2019-04-26T02:38:18.675Z,7.90
2019-04-26T02:40:48.707Z,8.00
2019-04-26T02:43:20.419Z,8.20
2019-04-26T02:46:08.391Z,8.20
2019-04-26T02:48:56.764Z,8.30
2019-04-26T02:51:29.251Z,8.40
2019-04-26T02:54:01.821Z,8.60
2019-04-26T02:56:34.166Z,8.60
2019-04-26T02:59:12.420Z,8.60
2019-04-26T03:01:41.833Z,8.60
2019-04-26T03:04:10.642Z,8.60
2019-04-26T03:06:42.835Z,8.50
2019-04-26T03:09:14.419Z,8.30
2019-04-26T03:11:46.081Z,8.30
2019-04-26T03:14:19.913Z,8.20
2019-04-26T03:17:01.950Z,8.10
2019-04-26T03:19:44.031Z,7.90
2019-04-26T03:22:18.604Z,7.70
2019-04-26T03:25:22.171Z,7.50
2019-04-26T03:28:05.913Z,7.40
2019-04-26T03:31:07.717Z,7.40
2019-04-26T03:33:49.142Z,7.40
2019-04-26T03:36:23.464Z,7.40
2019-04-26T03:39:14.898Z,7.50
2019-04-26T03:42:12.400Z,7.50
2019-04-26T03:44:58.522Z,7.60
2019-04-26T03:47:35.622Z,7.70
2019-04-26T03:50:09.850Z,7.70
2019-04-26T03:52:47.478Z,7.70
2019-04-26T03:55:43.773Z,7.70
2019-04-26T03:58:25.654Z,7.60
2019-04-26T04:01:06.318Z,7.60
2019-04-26T04:03:43.950Z,7.70
2019-04-26T04:06:17.002Z,7.70
2019-04-26T04:08:51.888Z,7.70
2019-04-26T04:11:30.463Z,7.70
2019-04-26T04:14:13.940Z,7.70
2019-04-26T04:16:56.134Z,7.80
2019-04-26T04:20:24.244Z,7.90
2019-04-26T04:23:00.869Z,8.00
2019-04-26T04:25:32.481Z,8.30
2019-04-26T04:28:06.550Z,8.30
2019-04-26T04:30:45.889Z,8.20
2019-04-26T04:33:36.731Z,8.10
2019-04-26T04:36:08.458Z,8.10
2019-04-26T04:39:10.792Z,8.20
2019-04-26T04:41:50.812Z,8.30
2019-04-26T04:44:25.171Z,8.40
2019-04-26T04:50:08.946Z,8.50
2019-04-26T04:52:47.787Z,8.50
2019-04-26T04:55:28.378Z,8.60
2019-04-26T04:58:02.892Z,8.60
2019-04-26T05:00:54.127Z,8.70
2019-04-26T05:03:42.346Z,8.80
2019-04-26T05:06:34.450Z,8.90
2019-04-26T05:09:11.504Z,8.90
2019-04-26T05:11:47.632Z,9.00
2019-04-26T05:14:22.235Z,9.20
2019-04-26T05:17:13.359Z,9.20
2019-04-26T05:20:00.038Z,9.20
2019-04-26T05:22:47.300Z,9.20
2019-04-26T05:25:51.652Z,9.30
2019-04-26T05:28:27.635Z,9.20
2019-04-26T05:31:34.338Z,9.20
2019-04-26T05:34:37.406Z,9.20
2019-04-26T05:37:24.769Z,9.10
2019-04-26T05:39:57.370Z,9.30
2019-04-26T05:42:48.352Z,9.30
2019-04-26T05:45:45.332Z,9.40
2019-04-26T05:48:55.721Z,9.40
2019-04-26T05:52:00.294Z,9.60
2019-04-26T05:55:09.834Z,9.70
2019-04-26T05:57:46.049Z,9.90
2019-04-26T06:00:43.431Z,10.00
2019-04-26T06:03:41.568Z,10.00
2019-04-26T06:06:34.138Z,9.90
2019-04-26T06:09:32.597Z,9.90
2019-04-26T06:12:23.232Z,9.90
2019-04-26T06:15:11.403Z,10.20
2019-04-26T06:17:57.280Z,10.30
2019-04-26T06:20:44.052Z,10.50
2019-04-26T06:23:15.753Z,10.70
2019-04-26T06:26:01.401Z,10.70
2019-04-26T06:29:01.106Z,10.80
2019-04-26T06:31:35.573Z,10.90
2019-04-26T06:34:12.956Z,10.90
2019-04-26T06:37:02.190Z,10.80
2019-04-26T06:39:39.592Z,10.90
2019-04-26T06:42:17.139Z,10.90
2019-04-26T06:45:02.890Z,11.00
2019-04-26T06:47:48.202Z,11.10
2019-04-26T06:50:21.466Z,11.20
2019-04-26T06:53:03.550Z,11.40
2019-04-26T06:55:39.542Z,11.70
2019-04-26T06:58:36.806Z,11.80
2019-04-26T07:01:10.630Z,12.00
2019-04-26T07:03:59.645Z,12.20
2019-04-26T07:06:35.324Z,12.40
2019-04-26T07:09:11.504Z,12.60
2019-04-26T07:12:02.879Z,12.70
2019-04-26T07:14:55.898Z,12.90
2019-04-26T07:17:42.551Z,13.00
2019-04-26T07:20:21.236Z,13.10
2019-04-26T07:23:39.667Z,13.20
2019-04-26T07:26:26.449Z,13.30
2019-04-26T07:29:07.150Z,13.50
2019-04-26T07:32:11.588Z,13.70
2019-04-26T07:35:14.661Z,14.00
2019-04-26T07:37:48.882Z,14.10
2019-04-26T07:40:42.669Z,14.10
2019-04-26T07:43:41.730Z,14.00
2019-04-26T07:46:46.468Z,14.10
2019-04-26T07:49:39.146Z,14.40
2019-04-26T07:52:26.434Z,14.60
2019-04-26T07:55:19.438Z,14.70
2019-04-26T07:57:56.557Z,14.90
2019-04-26T08:00:44.961Z,15.10
2019-04-26T08:03:39.799Z,15.20
2019-04-26T08:06:14.181Z,15.30
2019-04-26T08:08:51.091Z,15.50
2019-04-26T08:11:22.641Z,15.70
2019-04-26T08:14:12.608Z,15.80
2019-04-26T08:16:54.681Z,15.90
2019-04-26T08:19:26.397Z,16.10
2019-04-26T08:22:11.611Z,16.00
2019-04-26T08:24:30.717Z,16.00
2019-04-26T08:27:08.780Z,16.10
2019-04-26T08:29:35.796Z,16.20
2019-04-26T08:32:08.880Z,16.30
2019-04-26T08:34:41.722Z,16.40
2019-04-26T08:37:13.454Z,16.60
2019-04-26T08:39:45.512Z,16.70
2019-04-26T08:42:34.138Z,16.60
2019-04-26T08:45:10.360Z,16.50
2019-04-26T08:47:39.580Z,16.50
2019-04-26T08:50:27.854Z,16.60
2019-04-26T08:52:59.210Z,16.80
2019-04-26T08:55:29.580Z,16.80
2019-04-26T08:58:01.328Z,17.00
2019-04-26T09:00:35.036Z,17.00
2019-04-26T09:03:11.573Z,17.30
2019-04-26T09:05:45.630Z,17.30
2019-04-26T09:08:16.875Z,17.20
2019-04-26T09:10:48.715Z,17.10
2019-04-26T09:13:17.365Z,17.20
2019-04-26T09:16:07.426Z,17.50
2019-04-26T09:18:43.104Z,17.70
2019-04-26T09:21:08.738Z,17.80
2019-04-26T09:23:56.377Z,17.90
2019-04-26T09:26:29.796Z,17.80
2019-04-26T09:29:00.242Z,17.80
2019-04-26T09:31:33.458Z,17.70
2019-04-26T09:34:06.433Z,17.80
2019-04-26T09:36:34.066Z,17.90
2019-04-26T09:39:04.027Z,18.20
2019-04-26T09:41:34.597Z,18.30
2019-04-26T09:44:04.920Z,18.40
2019-04-26T09:46:38.004Z,18.50
2019-04-26T09:49:08.599Z,18.70
2019-04-26T09:51:39.016Z,18.80
2019-04-26T09:54:07.743Z,18.80
2019-04-26T09:56:36.278Z,19.00
2019-04-26T09:59:05.634Z,19.00
2019-04-26T10:01:34.649Z,18.90
2019-04-26T10:04:03.255Z,18.90
2019-04-26T10:06:32.129Z,19.20
2019-04-26T10:09:01.390Z,19.30
2019-04-26T10:11:33.000Z,19.50
2019-04-26T10:14:09.170Z,19.50
2019-04-26T10:19:31.746Z,19.70
2019-04-26T10:22:00.678Z,19.60
2019-04-26T10:24:29.386Z,19.70
2019-04-26T10:26:59.291Z,19.60
2019-04-26T10:29:28.111Z,19.30
2019-04-26T10:31:56.834Z,19.50
2019-04-26T10:34:26.495Z,19.80
2019-04-26T10:36:56.988Z,19.80
2019-04-26T10:39:28.528Z,19.90
2019-04-26T10:41:55.833Z,19.60
2019-04-26T10:44:24.693Z,19.80
2019-04-26T10:46:55.699Z,19.90
2019-04-26T10:49:46.651Z,19.90
2019-04-26T10:52:24.293Z,19.80
2019-04-26T10:54:57.637Z,20.10
2019-04-26T10:57:30.586Z,21.10
2019-04-26T11:00:00.879Z,21.70
2019-04-26T11:02:29.681Z,21.80
2019-04-26T11:04:59.090Z,22.30
2019-04-26T11:07:27.735Z,23.00
2019-04-26T11:09:56.301Z,23.80
2019-04-26T11:12:25.022Z,24.00
2019-04-26T11:14:56.975Z,24.20
2019-04-26T11:17:24.086Z,24.70
2019-04-26T11:19:52.829Z,24.90
2019-04-26T11:22:29.071Z,25.00
2019-04-26T11:24:53.912Z,24.70
2019-04-26T11:27:23.523Z,25.60
2019-04-26T11:29:53.965Z,25.20
2019-04-26T11:32:23.477Z,24.90
2019-04-26T11:34:54.548Z,25.10
2019-04-26T11:37:22.547Z,25.70
2019-04-26T11:39:51.264Z,25.90
2019-04-26T11:42:20.009Z,26.10
2019-04-26T11:44:48.741Z,26.40
2019-04-26T11:47:17.371Z,27.10
2019-04-26T11:49:46.007Z,27.70
2019-04-26T11:52:14.658Z,27.20
2019-04-26T11:54:44.372Z,27.10
2019-04-26T11:57:13.630Z,27.40
2019-04-26T11:59:42.325Z,27.30
2019-04-26T12:02:16.048Z,27.50
2019-04-26T12:04:59.657Z,27.20
2019-04-26T12:07:32.786Z,27.10
2019-04-26T12:10:05.895Z,27.20
2019-04-26T12:12:33.208Z,27.90
2019-04-26T12:15:03.826Z,28.00
2019-04-26T12:17:35.170Z,27.60
2019-04-26T12:20:04.955Z,27.50
2019-04-26T12:22:33.580Z,27.70
2019-04-26T12:25:03.312Z,27.60
2019-04-26T12:27:32.756Z,27.20
2019-04-26T12:30:01.471Z,27.30
2019-04-26T12:32:30.097Z,28.30
2019-04-26T12:34:58.739Z,28.30
2019-04-26T12:37:27.436Z,28.10
2019-04-26T12:39:56.094Z,28.30
2019-04-26T12:42:24.709Z,28.90
2019-04-26T12:45:03.918Z,29.50
2019-04-26T12:47:50.144Z,29.90
2019-04-26T12:50:18.759Z,29.60
2019-04-26T12:52:47.582Z,29.30
2019-04-26T12:55:18.256Z,29.30
2019-04-26T12:57:46.659Z,29.20
2019-04-26T13:00:17.208Z,28.70
2019-04-26T13:02:45.794Z,28.30
2019-04-26T13:05:18.564Z,28.10
2019-04-26T13:07:46.744Z,27.80
2019-04-26T13:10:35.470Z,27.50
2019-04-26T13:13:17.460Z,27.90
2019-04-26T13:15:51.820Z,27.10
2019-04-26T13:18:20.538Z,27.50
2019-04-26T13:20:49.341Z,28.30
2019-04-26T13:23:18.006Z,28.10
2019-04-26T13:25:46.589Z,28.40
2019-04-26T13:28:20.368Z,29.00
2019-04-26T13:30:46.369Z,28.90
2019-04-26T13:33:15.061Z,29.20
2019-04-26T13:35:46.647Z,29.80
2019-04-26T13:38:14.051Z,30.20
2019-04-26T13:40:42.703Z,30.30
2019-04-26T13:43:12.023Z,30.10
2019-04-26T13:45:50.861Z,29.90
2019-04-26T13:48:30.046Z,28.50
2019-04-26T13:51:18.443Z,28.40
2019-04-26T13:53:47.225Z,27.70
2019-04-26T13:56:15.952Z,27.60
2019-04-26T13:58:45.242Z,27.00
2019-04-26T14:01:14.530Z,26.70
2019-04-26T14:03:44.096Z,27.00
2019-04-26T14:06:12.726Z,26.90
2019-04-26T14:08:41.428Z,26.80
2019-04-26T14:11:10.080Z,26.80
2019-04-26T14:13:38.747Z,26.40
2019-04-26T14:16:07.677Z,26.90
2019-04-26T14:18:39.144Z,28.10
2019-04-26T14:21:07.271Z,27.60
2019-04-26T14:23:37.579Z,27.70
2019-04-26T14:26:14.043Z,29.00
2019-04-26T14:28:42.763Z,29.60
2019-04-26T14:33:49.367Z,30.00
2019-04-26T14:36:18.627Z,29.20
2019-04-26T14:38:47.383Z,29.70
2019-04-26T14:41:21.992Z,30.30
2019-04-26T14:43:46.298Z,30.40
2019-04-26T14:46:16.311Z,30.40
2019-04-26T14:48:54.949Z,29.80
2019-04-26T14:51:16.846Z,30.00
2019-04-26T14:53:45.596Z,30.10
2019-04-26T14:56:14.322Z,30.20
2019-04-26T14:58:44.426Z,30.80
2019-04-26T15:01:32.250Z,30.30
2019-04-26T15:04:19.378Z,30.40
2019-04-26T15:06:51.947Z,30.40
2019-04-26T15:09:20.201Z,29.90
2019-04-26T15:11:56.879Z,30.00
2019-04-26T15:14:21.111Z,30.10
2019-04-26T15:16:50.257Z,30.80
2019-04-26T15:19:19.067Z,30.00
2019-04-26T15:21:47.764Z,29.30
2019-04-26T15:24:16.475Z,29.80
2019-04-26T15:26:45.169Z,29.40
2019-04-26T15:29:14.129Z,30.70
2019-04-26T15:31:42.747Z,29.40
2019-04-26T15:34:12.182Z,28.60
2019-04-26T15:36:43.455Z,28.20
2019-04-26T15:39:21.285Z,27.40
2019-04-26T15:41:59.285Z,27.40
2019-04-26T15:44:47.948Z,26.60
2019-04-26T15:47:32.005Z,26.40
2019-04-26T15:50:03.891Z,26.70
2019-04-26T15:52:34.124Z,26.40
2019-04-26T15:55:05.747Z,25.90
2019-04-26T15:57:34.690Z,25.60
2019-04-26T16:00:04.408Z,25.40
2019-04-26T16:02:33.108Z,25.40
2019-04-26T16:05:02.611Z,25.30
2019-04-26T16:07:33.003Z,25.10
2019-04-26T16:10:01.779Z,25.00
2019-04-26T16:12:32.001Z,24.90
2019-04-26T16:15:02.311Z,24.80
2019-04-26T16:17:30.985Z,24.60
2019-04-26T16:20:01.753Z,24.60
2019-04-26T16:22:32.805Z,24.50
2019-04-26T16:25:04.028Z,24.30
2019-04-26T16:27:34.119Z,24.10
2019-04-26T16:30:19.515Z,23.90
2019-04-26T16:32:58.265Z,23.80
2019-04-26T16:35:28.001Z,23.50
2019-04-26T16:37:53.453Z,23.40
2019-04-26T16:40:25.781Z,23.20
2019-04-26T16:42:56.604Z,23.00
2019-04-26T16:45:22.946Z,23.00
2019-04-26T16:47:53.142Z,22.90
2019-04-26T16:50:28.827Z,22.90
2019-04-26T16:52:52.291Z,22.80
2019-04-26T16:57:54.902Z,22.70
2019-04-26T17:00:31.841Z,22.50
2019-04-26T17:02:52.794Z,22.30
2019-04-26T17:05:43.939Z,22.30
2019-04-26T17:07:53.868Z,22.30
2019-04-26T17:10:24.693Z,22.30
2019-04-26T17:12:55.721Z,22.10
2019-04-26T17:15:24.897Z,22.00
2019-04-26T17:17:53.509Z,21.90
2019-04-26T17:20:22.259Z,21.70
2019-04-26T17:23:03.126Z,21.60
2019-04-26T17:25:35.932Z,21.30
2019-04-26T17:28:05.484Z,21.00
2019-04-26T17:30:40.809Z,20.80
2019-04-26T17:33:04.578Z,20.70
2019-04-26T17:35:36.747Z,20.60
2019-04-26T17:38:05.074Z,20.30
2019-04-26T17:40:36.290Z,20.20
2019-04-26T17:43:05.455Z,20.20
2019-04-26T17:45:36.309Z,20.10
2019-04-26T17:48:11.735Z,20.10
2019-04-26T17:50:42.362Z,20.00
2019-04-26T17:53:16.150Z,19.90
2019-04-26T17:55:45.912Z,19.70
2019-04-26T17:58:17.266Z,19.60
2019-04-26T18:00:46.577Z,19.40
2019-04-26T18:03:15.036Z,19.40
2019-04-26T18:05:56.518Z,19.30
2019-04-26T18:08:33.659Z,19.20
2019-04-26T18:10:51.558Z,19.20
2019-04-26T18:13:20.244Z,19.20
2019-04-26T18:15:50.638Z,19.20
2019-04-26T18:18:20.835Z,19.00
2019-04-26T18:20:56.866Z,19.00
2019-04-26T18:23:25.742Z,18.90
2019-04-26T18:25:56.095Z,18.90
2019-04-26T18:28:24.792Z,18.80
2019-04-26T18:30:53.542Z,18.70
2019-04-26T18:33:25.850Z,18.60
2019-04-26T18:35:55.977Z,18.40
2019-04-26T18:38:22.866Z,18.40
2019-04-26T18:41:00.473Z,18.30
2019-04-26T18:43:24.284Z,18.20
2019-04-26T18:45:58.597Z,18.10
2019-04-26T18:48:25.104Z,18.10
2019-04-26T18:50:55.342Z,18.00
2019-04-26T18:53:39.441Z,17.90
2019-04-26T18:56:07.201Z,17.80
2019-04-26T18:58:37.996Z,17.80
2019-04-26T19:01:07.009Z,17.80
2019-04-26T19:03:36.409Z,17.80
2019-04-26T19:06:05.763Z,17.80
2019-04-26T19:08:45.487Z,17.70
2019-04-26T19:11:07.560Z,17.70
2019-04-26T19:13:37.786Z,17.70
2019-04-26T19:16:10.595Z,17.60
2019-04-26T19:18:57.609Z,17.60
2019-04-26T19:21:27.833Z,17.60
2019-04-26T19:24:05.799Z,17.60
2019-04-26T19:26:33.133Z,17.50
2019-04-26T19:28:58.414Z,17.50
2019-04-26T19:31:27.535Z,17.40
2019-04-26T19:33:56.219Z,17.40
2019-04-26T19:36:27.845Z,17.40
2019-04-26T19:38:55.008Z,17.30
2019-04-26T19:41:25.175Z,17.20
2019-04-26T19:43:56.845Z,17.10
2019-04-26T19:46:31.556Z,17.00
2019-04-26T19:49:14.503Z,16.90
2019-04-26T19:51:52.190Z,16.90
2019-04-26T19:54:27.729Z,17.00
2019-04-26T19:56:56.665Z,16.90
2019-04-26T19:59:27.584Z,16.90
2019-04-26T20:01:57.976Z,16.90
2019-04-26T20:04:30.687Z,16.80
2019-04-26T20:06:56.877Z,16.70
2019-04-26T20:09:26.508Z,16.70
2019-04-26T20:11:57.939Z,16.70
2019-04-26T20:14:39.516Z,16.70
2019-04-26T20:16:56.061Z,16.60
2019-04-26T20:19:34.409Z,16.60
2019-04-26T20:21:55.059Z,16.50
2019-04-26T20:24:23.638Z,16.40
2019-04-26T20:26:52.369Z,16.50
2019-04-26T20:29:21.484Z,16.50
2019-04-26T20:32:02.158Z,16.50
2019-04-26T20:34:32.101Z,16.50
2019-04-26T20:37:01.465Z,16.50
2019-04-26T20:39:31.682Z,16.30
2019-04-26T20:42:03.770Z,16.10
2019-04-26T20:44:47.553Z,16.00
2019-04-26T20:47:03.226Z,16.10
2019-04-26T20:49:33.686Z,16.00
2019-04-26T20:52:02.302Z,16.20
2019-04-26T20:54:34.880Z,16.20
2019-04-26T20:57:03.510Z,16.40
2019-04-26T20:59:32.145Z,16.40
2019-04-26T21:02:07.438Z,16.40
2019-04-26T21:04:37.978Z,16.40
2019-04-26T21:07:06.826Z,16.30
2019-04-26T21:09:36.432Z,16.20
2019-04-26T21:12:07.462Z,16.10
2019-04-26T21:14:37.346Z,16.10
2019-04-26T21:17:05.514Z,16.00
2019-04-26T21:19:34.179Z,16.10
2019-04-26T21:22:02.998Z,16.00
2019-04-26T21:24:36.823Z,16.00
2019-04-26T21:27:25.882Z,15.90
2019-04-26T21:30:03.154Z,15.90
2019-04-26T21:32:41.687Z,15.80
2019-04-26T21:35:13.547Z,15.80
2019-04-26T21:37:53.945Z,15.70
2019-04-26T21:40:30.805Z,15.80
2019-04-26T21:43:00.617Z,15.80
2019-04-26T21:45:31.050Z,15.70
2019-04-26T21:48:02.646Z,15.60
2019-04-26T21:50:35.725Z,15.40
2019-04-26T21:53:03.445Z,15.40
2019-04-26T21:55:35.295Z,15.40
2019-04-26T21:58:03.007Z,15.30
2019-04-26T22:00:33.417Z,15.20
2019-04-26T22:03:03.857Z,15.10
2019-04-26T22:05:35.338Z,15.10
2019-04-26T22:08:04.140Z,14.90
2019-04-26T22:10:34.500Z,14.80
2019-04-26T22:13:05.652Z,14.80
2019-04-26T22:15:54.563Z,14.80
2019-04-26T22:18:32.871Z,14.90
2019-04-26T22:21:03.122Z,14.80
2019-04-26T22:23:43.637Z,14.50
2019-04-26T22:26:13.654Z,14.40
2019-04-26T22:28:43.369Z,14.30
2019-04-26T22:31:13.369Z,14.20
2019-04-26T22:33:42.875Z,14.10
2019-04-26T22:36:13.169Z,13.90
2019-04-26T22:38:42.856Z,13.90
2019-04-26T22:41:19.045Z,13.90
2019-04-26T22:43:49.585Z,13.90
2019-04-26T22:46:44.345Z,13.70
2019-04-26T22:49:05.574Z,13.60
2019-04-26T22:51:33.587Z,13.50
2019-04-26T22:54:07.233Z,13.40
2019-04-26T22:56:37.016Z,13.40
2019-04-26T22:59:08.004Z,13.50
2019-04-26T23:01:39.228Z,13.60
2019-04-26T23:04:07.396Z,13.50
2019-04-26T23:06:36.322Z,13.40
2019-04-26T23:09:07.448Z,13.40
2019-04-26T23:11:39.527Z,13.40
2019-04-26T23:14:17.834Z,13.20
2019-04-26T23:17:04.198Z,13.20
2019-04-26T23:19:28.261Z,13.00
2019-04-26T23:21:59.626Z,12.80
2019-04-26T23:24:28.282Z,12.90
2019-04-26T23:26:56.907Z,12.80
2019-04-26T23:29:25.633Z,12.80
2019-04-26T23:31:55.563Z,12.70
2019-04-26T23:34:25.287Z,12.80
2019-04-26T23:36:54.115Z,12.80
2019-04-26T23:39:24.647Z,12.70
2019-04-26T23:41:53.978Z,12.80
2019-04-26T23:44:23.276Z,12.70
2019-04-26T23:46:54.946Z,12.70
2019-04-26T23:49:25.287Z,12.60
2019-04-26T23:51:56.712Z,12.60
2019-04-26T23:54:28.080Z,12.60
2019-04-26T23:56:57.946Z,12.50
2019-04-26T23:59:25.851Z,12.50
